Time;durP1;ratioP1;P1;durP2;ratioP2;P2;SDS_P1;SDS_P2;PMS_P1;PMS_P2;Temp;Humidity;BMP_temperature;BMP_pressure;BME280_temperature;BME280_humidity;BME280_pressure;Samples;Min_cycle;Max_cycle;Signal;HPM_P1;HPM_P2
2022/08/01 00:00:45;;;;;;;0.30;0.30;;;;;;;22.91;59.69;101045.50;5170209;28;20034;-79
2022/08/01 00:03:16;;;;;;;0.38;0.38;;;;;;;22.94;60.37;101055.97;5180713;28;20085;-79
2022/08/01 00:05:47;;;;;;;0.52;0.52;;;;;;;22.86;60.68;101044.97;5176308;28;20681;-79
2022/08/01 00:08:18;;;;;;;0.20;0.20;;;;;;;22.81;60.52;101041.78;5142975;28;20042;-79
2022/08/01 00:10:48;;;;;;;0.20;0.20;;;;;;;22.61;62.46;101041.44;5147797;28;20042;-79
2022/08/01 00:13:19;;;;;;;0.30;0.30;;;;;;;22.58;62.59;101052.38;5144200;28;20400;-79
2022/08/01 00:15:49;;;;;;;0.20;0.20;;;;;;;22.62;62.92;101045.81;5163733;28;20054;-80
2022/08/01 00:18:20;;;;;;;0.95;0.75;;;;;;;22.64;62.42;101043.88;5147163;28;20026;-80
2022/08/01 00:20:51;;;;;;;0.20;0.20;;;;;;;22.59;62.21;101051.41;5170292;28;20058;-80
2022/08/01 00:23:21;;;;;;;1.05;0.95;;;;;;;22.63;60.88;101055.53;5163914;28;20027;-79
2022/08/01 00:25:52;;;;;;;0.20;0.20;;;;;;;22.59;61.26;101053.22;5160011;28;20027;-79
2022/08/01 00:28:23;;;;;;;0.25;0.25;;;;;;;22.61;61.85;101056.63;5145545;28;20406;-80
2022/08/01 00:30:53;;;;;;;0.43;0.43;;;;;;;22.55;62.28;101059.75;5159286;28;20031;-79
2022/08/01 00:33:24;;;;;;;0.30;0.30;;;;;;;22.55;62.13;101054.41;5155520;28;21708;-79
2022/08/01 00:35:54;;;;;;;0.43;0.43;;;;;;;22.52;62.70;101055.47;5158631;28;20049;-79
2022/08/01 00:38:25;;;;;;;0.32;0.32;;;;;;;22.48;63.27;101054.84;5141463;28;20035;-79
2022/08/01 00:40:59;;;;;;;0.30;0.30;;;;;;;22.54;61.46;101055.38;5130482;28;20057;-79
2022/08/01 00:43:29;;;;;;;0.20;0.20;;;;;;;22.49;61.64;101055.72;5143879;28;20039;-79
2022/08/01 00:46:00;;;;;;;2.28;0.50;;;;;;;22.45;63.00;101059.56;5128668;28;20101;-79
2022/08/01 00:48:33;;;;;;;0.40;0.40;;;;;;;22.26;65.65;101058.19;5121352;28;20516;-79
2022/08/01 00:51:05;;;;;;;0.20;0.20;;;;;;;22.27;64.84;101051.84;5125186;28;20126;-79
2022/08/01 00:53:36;;;;;;;0.20;0.20;;;;;;;22.22;63.95;101054.00;5109971;28;20062;-78
2022/08/01 00:56:10;;;;;;;0.20;0.20;;;;;;;22.25;64.82;101061.81;5130356;28;20070;-80
2022/08/01 00:58:43;;;;;;;0.45;0.45;;;;;;;22.31;62.52;101053.34;5119831;28;20149;-79
2022/08/01 01:01:15;;;;;;;1.85;0.52;;;;;;;22.35;62.09;101059.34;5124075;28;20090;-79
2022/08/01 01:03:46;;;;;;;0.40;0.40;;;;;;;22.36;63.08;101054.84;5138525;28;20043;-79
2022/08/01 01:06:38;;;;;;;0.40;0.40;;;;;;;22.29;63.29;101059.78;5131977;28;20034;-79
2022/08/01 01:09:17;;;;;;;0.40;0.40;;;;;;;22.27;62.78;101059.88;5120709;28;20071;-79
2022/08/01 01:12:01;;;;;;;0.20;0.20;;;;;;;22.29;62.50;101054.44;5135604;28;20450;-79
2022/08/01 01:15:02;;;;;;;0.30;0.30;;;;;;;22.28;62.58;101053.56;5134061;28;20104;-79
2022/08/01 01:17:40;;;;;;;0.50;0.50;;;;;;;22.30;62.45;101050.81;5154771;28;20392;-79
2022/08/01 01:20:14;;;;;;;0.35;0.32;;;;;;;22.27;62.39;101051.00;5135242;28;20558;-79
2022/08/01 01:23:00;;;;;;;0.40;0.40;;;;;;;22.30;61.69;101051.66;5123301;28;20055;-79
2022/08/01 01:25:37;;;;;;;1.25;0.95;;;;;;;22.40;62.10;101053.69;5100547;28;20080;-79
2022/08/01 01:28:22;;;;;;;0.47;0.47;;;;;;;22.29;61.48;101055.28;5142803;28;20524;-79
2022/08/01 01:30:57;;;;;;;0.20;0.20;;;;;;;22.29;61.80;101055.28;5141049;28;20535;-79
2022/08/01 01:33:31;;;;;;;0.40;0.40;;;;;;;22.29;61.72;101054.44;5138537;28;20030;-79
2022/08/01 01:36:11;;;;;;;0.40;0.40;;;;;;;22.27;63.00;101057.19;5136536;28;20045;-79
2022/08/01 01:38:45;;;;;;;0.20;0.20;;;;;;;22.28;61.65;101052.72;5120805;28;20086;-79
2022/08/01 01:41:18;;;;;;;0.40;0.40;;;;;;;22.23;62.22;101052.22;5126705;28;20403;-79
2022/08/01 01:43:50;;;;;;;0.77;0.20;;;;;;;22.25;62.03;101056.47;5140688;28;20451;-80
2022/08/01 01:46:26;;;;;;;0.52;0.52;;;;;;;22.19;63.81;101064.91;5152677;28;20046;-79
2022/08/01 01:48:58;;;;;;;0.55;0.55;;;;;;;22.26;62.25;101058.19;5152276;28;20031;-79
2022/08/01 01:51:30;;;;;;;0.22;0.22;;;;;;;22.26;62.21;101060.00;5139107;28;20034;-79
2022/08/01 01:54:05;;;;;;;1.70;0.57;;;;;;;22.24;62.08;101062.78;5143772;28;20548;-79
2022/08/01 01:56:48;;;;;;;0.20;0.20;;;;;;;22.16;63.11;101062.47;5147535;28;20463;-79
2022/08/01 01:59:23;;;;;;;0.30;0.30;;;;;;;22.16;63.74;101059.78;5144717;28;20022;-79
2022/08/01 02:01:56;;;;;;;0.30;0.30;;;;;;;22.12;64.12;101051.16;5157836;28;20067;-79
2022/08/01 02:04:28;;;;;;;0.10;0.10;;;;;;;22.14;62.74;101051.03;5143920;28;20415;-79
2022/08/01 02:07:03;;;;;;;0.20;0.20;;;;;;;22.13;63.55;101049.31;5156620;28;20116;-79
2022/08/01 02:09:35;;;;;;;0.22;0.22;;;;;;;22.11;63.63;101051.22;5143790;28;20038;-79
2022/08/01 02:12:11;;;;;;;0.22;0.22;;;;;;;22.11;62.66;101045.88;5148375;28;20273;-79
2022/08/01 02:14:47;;;;;;;0.40;0.40;;;;;;;22.11;62.57;101049.44;5131778;28;20058;-79
2022/08/01 02:17:19;;;;;;;0.30;0.30;;;;;;;22.08;62.23;101048.81;5153392;28;20091;-79
2022/08/01 02:19:50;;;;;;;0.88;0.65;;;;;;;22.10;63.62;101049.56;5137095;28;20027;-79
2022/08/01 02:22:30;;;;;;;0.25;0.25;;;;;;;22.08;62.53;101046.97;5132302;28;20026;-79
2022/08/01 02:25:36;;;;;;;0.30;0.30;;;;;;;22.12;63.74;101047.59;5166866;28;20043;-81
2022/08/01 02:28:15;;;;;;;0.22;0.22;;;;;;;22.06;63.36;101035.56;5169611;28;20027;-79
2022/08/01 02:30:48;;;;;;;0.20;0.20;;;;;;;22.02;63.64;101042.06;5138167;28;20047;-79
2022/08/01 02:33:24;;;;;;;0.20;0.20;;;;;;;22.02;62.68;101039.41;5152625;28;20038;-79
2022/08/01 02:35:59;;;;;;;0.40;0.40;;;;;;;21.93;64.37;101032.91;5174223;28;20074;-79
2022/08/01 02:38:34;;;;;;;0.30;0.30;;;;;;;22.02;63.04;101048.25;5137543;28;20027;-79
2022/08/01 02:41:10;;;;;;;0.70;0.70;;;;;;;22.05;62.46;101041.00;5142101;28;20069;-79
2022/08/01 02:43:45;;;;;;;0.65;0.45;;;;;;;22.01;62.95;101041.22;5143685;28;20125;-79
2022/08/01 02:46:21;;;;;;;9.77;0.93;;;;;;;22.01;62.90;101038.56;5141107;28;20192;-78
2022/08/01 02:48:58;;;;;;;0.20;0.20;;;;;;;21.97;64.45;101039.72;5156131;28;20030;-78
2022/08/01 02:51:31;;;;;;;0.40;0.40;;;;;;;21.99;63.70;101043.13;5145286;28;20117;-79
2022/08/01 02:54:10;;;;;;;0.60;0.60;;;;;;;21.96;63.61;101042.50;5155354;28;20563;-78
2022/08/01 02:56:42;;;;;;;0.20;0.20;;;;;;;22.00;63.02;101042.19;5141433;28;20436;-79
2022/08/01 02:59:17;;;;;;;0.45;0.45;;;;;;;21.94;63.52;101036.41;5122695;28;20162;-79
2022/08/01 03:01:50;;;;;;;0.88;0.88;;;;;;;21.93;63.19;101032.03;5145635;28;20041;-79
2022/08/01 03:04:22;;;;;;;0.20;0.20;;;;;;;21.83;64.64;101030.00;5140372;28;20038;-78
2022/08/01 03:06:58;;;;;;;0.30;0.30;;;;;;;21.78;65.32;101028.59;5111397;28;20062;-79
2022/08/01 03:09:32;;;;;;;0.40;0.40;;;;;;;21.84;64.47;101028.19;5142310;28;20073;-79
2022/08/01 03:12:09;;;;;;;0.77;0.60;;;;;;;21.83;65.02;101030.00;5110033;28;20408;-79
2022/08/01 03:14:42;;;;;;;0.30;0.30;;;;;;;21.89;64.27;101027.88;5111746;28;20567;-78
2022/08/01 03:17:12;;;;;;;0.70;0.70;;;;;;;21.88;63.59;101047.53;5096222;28;20038;-79
2022/08/01 03:19:45;;;;;;;0.70;0.32;;;;;;;21.88;64.25;101047.53;5123768;28;21014;-79
2022/08/01 03:22:16;;;;;;;0.30;0.30;;;;;;;21.88;63.22;101053.72;5146437;28;20033;-79
2022/08/01 03:24:50;;;;;;;0.57;0.57;;;;;;;21.88;63.18;101048.38;5128700;28;20101;-79
2022/08/01 03:27:24;;;;;;;0.75;0.75;;;;;;;21.86;63.60;101052.97;5111612;28;20027;-79
2022/08/01 03:29:57;;;;;;;0.30;0.30;;;;;;;21.87;63.01;101051.16;5109665;28;20424;-78
2022/08/01 03:32:32;;;;;;;0.20;0.20;;;;;;;21.83;63.52;101061.19;5103298;29;20062;-79
2022/08/01 03:35:02;;;;;;;0.40;0.40;;;;;;;21.87;62.94;101060.00;5105720;28;20054;-79
2022/08/01 03:37:38;;;;;;;0.82;0.60;;;;;;;21.90;62.99;101059.81;5122217;28;20058;-79
2022/08/01 03:40:17;;;;;;;0.40;0.40;;;;;;;21.88;63.19;101056.38;5135973;28;20079;-79
2022/08/01 03:42:52;;;;;;;0.50;0.50;;;;;;;21.92;62.74;101049.88;5140026;28;20043;-79
2022/08/01 03:45:30;;;;;;;0.30;0.30;;;;;;;21.86;62.55;101052.97;5089246;28;20046;-79
2022/08/01 03:48:22;;;;;;;0.40;0.40;;;;;;;21.86;64.00;101052.97;5122338;28;20114;-79
2022/08/01 03:50:54;;;;;;;0.30;0.30;;;;;;;21.86;63.25;101058.28;5123727;28;20173;-79
2022/08/01 03:53:29;;;;;;;1.88;0.63;;;;;;;21.92;62.43;101063.25;5125206;28;20047;-79
2022/08/01 03:56:03;;;;;;;0.30;0.30;;;;;;;21.92;62.77;101059.69;5129236;28;20061;-79
2022/08/01 03:58:36;;;;;;;0.63;0.38;;;;;;;21.85;63.26;101054.78;5137460;28;20456;-79
2022/08/01 04:01:09;;;;;;;0.55;0.55;;;;;;;21.90;62.80;101058.97;5131873;28;20050;-79
2022/08/01 04:03:41;;;;;;;0.73;0.73;;;;;;;21.92;62.45;101052.56;5140094;28;20038;-79
2022/08/01 04:06:13;;;;;;;0.70;0.70;;;;;;;21.88;62.91;101060.88;5115980;28;20486;-79
2022/08/01 04:08:55;;;;;;;2.90;0.95;;;;;;;21.90;62.85;101054.47;5109130;28;20043;-79
2022/08/01 04:11:27;;;;;;;0.88;0.63;;;;;;;21.91;62.42;101052.63;5111443;28;20694;-79
2022/08/01 04:13:58;;;;;;;1.08;0.77;;;;;;;21.90;62.21;101049.13;5134867;28;20034;-79
2022/08/01 04:16:28;;;;;;;0.50;0.50;;;;;;;21.88;62.15;101066.22;5145083;28;20042;-79
2022/08/01 04:18:59;;;;;;;0.52;0.52;;;;;;;21.90;62.00;101061.63;5151153;28;20034;-79
2022/08/01 04:21:32;;;;;;;0.75;0.75;;;;;;;21.89;62.38;101058.09;5128403;28;20190;-79
2022/08/01 04:24:17;;;;;;;3.50;1.95;;;;;;;21.88;62.37;101059.06;5124985;28;20132;-79
2022/08/01 04:26:50;;;;;;;1.02;0.88;;;;;;;21.87;62.61;101065.34;5124551;28;20047;-80
2022/08/01 04:29:23;;;;;;;0.30;0.30;;;;;;;21.83;63.00;101074.56;5153308;28;20091;-80
2022/08/01 04:31:56;;;;;;;2.17;0.43;;;;;;;21.87;62.31;101073.38;5177222;28;20038;-79
2022/08/01 04:34:30;;;;;;;0.75;0.75;;;;;;;21.86;63.13;101082.34;5159831;28;20045;-80
2022/08/01 04:37:03;;;;;;;0.45;0.45;;;;;;;21.87;62.35;101075.19;5157320;28;20039;-79
2022/08/01 04:39:36;;;;;;;0.50;0.50;;;;;;;21.87;62.44;101084.06;5144538;28;20044;-79
2022/08/01 04:42:13;;;;;;;0.40;0.40;;;;;;;21.88;62.24;101080.41;5126217;28;20118;-79
2022/08/01 04:44:44;;;;;;;5.13;1.83;;;;;;;21.90;62.16;101083.84;5139318;28;21489;-79
2022/08/01 04:47:16;;;;;;;0.65;0.65;;;;;;;21.88;62.25;101083.09;5134815;28;20065;-79
2022/08/01 04:49:46;;;;;;;0.63;0.63;;;;;;;21.92;62.05;101084.59;5147517;28;20609;-80
2022/08/01 04:52:20;;;;;;;0.60;0.60;;;;;;;21.81;64.23;101084.47;5128316;28;20051;-78
2022/08/01 04:54:50;;;;;;;0.65;0.65;;;;;;;21.85;62.68;101094.00;5145059;28;20036;-79
2022/08/01 04:57:21;;;;;;;0.93;0.73;;;;;;;21.87;63.01;101097.41;5131359;28;20644;-79
2022/08/01 04:59:56;;;;;;;2.92;0.70;;;;;;;21.88;63.04;101101.78;5117819;28;20027;-79
2022/08/01 05:02:28;;;;;;;1.55;1.15;;;;;;;21.85;62.66;101100.19;5101979;28;20039;-79
2022/08/01 05:04:59;;;;;;;2.03;1.38;;;;;;;21.88;62.93;101098.28;5117904;28;20031;-80
2022/08/01 05:07:30;;;;;;;1.58;1.48;;;;;;;21.79;63.85;101103.28;5126019;28;20078;-79
2022/08/01 05:10:01;;;;;;;0.85;0.82;;;;;;;21.82;63.45;101104.91;5123676;28;20514;-79
2022/08/01 05:12:31;;;;;;;0.85;0.65;;;;;;;21.82;62.64;101099.56;5124187;28;20110;-79
2022/08/01 05:15:06;;;;;;;1.00;1.00;;;;;;;21.84;62.92;101102.97;5121783;28;20066;-79
2022/08/01 05:17:38;;;;;;;1.27;0.73;;;;;;;21.84;63.07;101097.63;5126261;28;20073;-78
2022/08/01 05:20:09;;;;;;;0.82;0.65;;;;;;;21.80;63.28;101102.34;5140874;28;20121;-79
2022/08/01 05:22:40;;;;;;;1.00;1.00;;;;;;;21.84;63.09;101100.31;5112172;28;20137;-79
2022/08/01 05:25:13;;;;;;;0.50;0.50;;;;;;;21.82;63.38;101102.22;5125606;28;20129;-79
2022/08/01 05:27:43;;;;;;;;;;;;;;;21.83;63.47;101095.94;5117776;28;20039;-79
2022/08/01 05:30:14;;;;;;;0.80;0.80;;;;;;;21.84;63.14;101102.97;5108311;28;19919;-79
2022/08/01 05:32:44;;;;;;;0.70;0.70;;;;;;;21.89;62.43;101103.50;5118463;28;20035;-78
2022/08/01 05:35:15;;;;;;;1.20;0.90;;;;;;;21.88;62.81;101106.28;5136872;28;20039;-79
2022/08/01 05:37:45;;;;;;;0.85;0.82;;;;;;;21.86;63.20;101109.03;5120925;28;20082;-79
2022/08/01 05:40:16;;;;;;;0.82;0.82;;;;;;;21.89;64.27;101116.03;5138697;28;20050;-80
2022/08/01 05:42:47;;;;;;;1.38;1.27;;;;;;;21.94;63.07;101120.06;5121608;28;20679;-80
2022/08/01 05:45:17;;;;;;;2.58;1.20;;;;;;;21.88;64.38;101120.50;5137734;28;20039;-79
2022/08/01 05:47:48;;;;;;;1.80;1.23;;;;;;;21.92;63.94;101118.47;5107647;28;20035;-79
2022/08/01 05:50:21;;;;;;;1.13;1.13;;;;;;;21.86;64.12;101122.41;5095364;28;20042;-80
2022/08/01 05:52:51;;;;;;;0.60;0.60;;;;;;;21.91;63.97;101125.63;5145639;28;20443;-80
2022/08/01 05:55:22;;;;;;;1.00;0.95;;;;;;;21.97;63.23;101125.19;5127088;28;20552;-80
2022/08/01 05:57:55;;;;;;;0.52;0.52;;;;;;;21.98;63.30;101123.41;5173677;28;20463;-80
2022/08/01 06:00:26;;;;;;;1.55;1.30;;;;;;;21.97;63.66;101124.38;5138517;28;20438;-80
2022/08/01 06:02:57;;;;;;;1.70;1.52;;;;;;;22.06;63.77;101126.41;5117522;28;20039;-83
2022/08/01 06:05:27;;;;;;;3.17;1.15;;;;;;;21.97;64.17;101119.84;5135640;28;20053;-81
2022/08/01 06:07:58;;;;;;;5.85;1.65;;;;;;;22.02;63.38;101123.06;5128799;28;20085;-79
2022/08/01 06:10:28;;;;;;;0.50;0.50;;;;;;;22.01;65.18;101124.03;5109015;28;20074;-80
2022/08/01 06:13:03;;;;;;;1.48;1.35;;;;;;;22.01;65.66;101118.69;5158634;28;20034;-83
2022/08/01 06:15:33;;;;;;;1.30;1.20;;;;;;;22.10;64.53;101113.69;5145147;28;20039;-81
2022/08/01 06:18:04;;;;;;;0.40;0.40;;;;;;;22.09;64.33;101122.66;5145269;28;20218;-81
2022/08/01 06:20:35;;;;;;;1.70;1.50;;;;;;;22.12;64.01;101112.59;5134152;28;20057;-81
2022/08/01 06:23:06;;;;;;;1.35;1.25;;;;;;;22.16;63.98;101107.91;5136585;28;20015;-83
2022/08/01 06:25:36;;;;;;;0.43;0.43;;;;;;;22.14;64.27;101116.03;5140396;28;20051;-80
2022/08/01 06:28:10;;;;;;;1.50;1.40;;;;;;;22.22;64.79;101118.16;5176659;28;20034;-81
2022/08/01 06:30:41;;;;;;;1.95;1.23;;;;;;;22.20;64.14;101114.72;5175315;28;20094;-81
2022/08/01 06:33:11;;;;;;;0.80;0.80;;;;;;;22.20;64.62;101113.88;5154515;28;20073;-81
2022/08/01 06:35:42;;;;;;;2.17;1.80;;;;;;;22.16;64.53;101121.25;5133190;28;20113;-82
2022/08/01 06:38:13;;;;;;;0.60;0.60;;;;;;;22.14;64.43;101120.50;5160544;28;20031;-82
2022/08/01 06:40:43;;;;;;;1.08;1.08;;;;;;;22.10;64.50;101121.69;5145855;28;20047;-81
2022/08/01 06:43:15;;;;;;;3.53;0.90;;;;;;;22.11;63.89;101120.72;5147791;28;20057;-81
2022/08/01 06:45:45;;;;;;;1.45;1.35;;;;;;;22.19;63.55;101118.34;5149796;28;20209;-81
2022/08/01 06:48:16;;;;;;;0.82;0.82;;;;;;;22.15;63.40;101125.72;5149759;28;20080;-80
2022/08/01 06:50:47;;;;;;;0.80;0.80;;;;;;;22.16;63.86;101129.28;5164143;28;20035;-81
2022/08/01 06:53:17;;;;;;;0.60;0.60;;;;;;;22.13;63.61;101125.00;5117415;28;20464;-81
2022/08/01 06:55:48;;;;;;;0.73;0.73;;;;;;;22.15;63.33;101125.72;5148583;28;20091;-81
2022/08/01 06:58:18;;;;;;;1.40;1.13;;;;;;;22.15;63.95;101130.22;5143003;28;20336;-81
2022/08/01 07:00:49;;;;;;;2.05;1.02;;;;;;;22.15;64.18;101128.41;5126983;28;20109;-82
2022/08/01 07:03:19;;;;;;;3.83;0.88;;;;;;;22.13;64.28;101129.47;5132266;28;20437;-81
2022/08/01 07:05:50;;;;;;;0.52;0.52;;;;;;;22.13;64.01;101124.13;5134846;28;20272;-81
2022/08/01 07:08:21;;;;;;;0.30;0.30;;;;;;;22.08;63.73;101121.78;5148854;28;20243;-82
2022/08/01 07:10:51;;;;;;;0.70;0.70;;;;;;;22.20;63.51;101120.06;5143767;28;20113;-81
2022/08/01 07:13:24;;;;;;;0.52;0.52;;;;;;;22.18;63.30;101124.69;5124651;28;20026;-81
2022/08/01 07:15:55;;;;;;;0.40;0.40;;;;;;;22.20;63.74;101119.22;5130620;28;20042;-81
2022/08/01 07:18:25;;;;;;;0.52;0.52;;;;;;;22.19;63.58;101122.84;5159995;28;20081;-81
2022/08/01 07:20:56;;;;;;;1.05;1.05;;;;;;;22.22;63.67;101128.00;5147213;28;20279;-81
2022/08/01 07:23:27;;;;;;;0.95;0.70;;;;;;;22.29;62.99;101130.13;5123902;28;20041;-80
2022/08/01 07:25:57;;;;;;;0.77;0.77;;;;;;;22.20;63.70;101122.75;5154419;28;20085;-80
2022/08/01 07:28:28;;;;;;;5.43;1.63;;;;;;;22.18;63.68;101127.38;5146492;28;20105;-80
2022/08/01 07:30:59;;;;;;;0.73;0.73;;;;;;;22.24;63.34;101124.25;5144510;28;20050;-81
2022/08/01 07:33:29;;;;;;;2.55;0.50;;;;;;;22.34;62.77;101116.44;5142077;28;20163;-80
2022/08/01 07:36:00;;;;;;;0.52;0.52;;;;;;;22.31;63.28;101120.19;5167222;28;20046;-82
2022/08/01 07:38:33;;;;;;;0.45;0.45;;;;;;;22.33;62.70;101126.28;5178292;28;20041;-81
2022/08/01 07:41:10;;;;;;;0.35;0.35;;;;;;;22.38;62.69;101133.97;5151052;28;20042;-80
2022/08/01 07:43:41;;;;;;;0.60;0.60;;;;;;;22.39;62.66;101133.06;5141575;28;20023;-82
2022/08/01 07:46:11;;;;;;;0.60;0.60;;;;;;;22.44;62.51;101138.03;5116904;29;20138;-81
2022/08/01 07:48:42;;;;;;;0.57;0.52;;;;;;;22.46;62.68;101136.13;5106292;29;20047;-80
2022/08/01 07:51:14;;;;;;;1.23;1.13;;;;;;;22.50;62.46;101129.59;5116362;29;20074;-81
2022/08/01 07:53:44;;;;;;;0.65;0.65;;;;;;;22.53;62.55;101134.72;5118043;29;20054;-81
2022/08/01 07:56:19;;;;;;;0.70;0.70;;;;;;;22.56;62.26;101131.00;5108901;29;20861;-79
2022/08/01 07:58:50;;;;;;;0.52;0.50;;;;;;;22.48;62.59;101134.19;5113463;29;20050;-79
2022/08/01 08:01:20;;;;;;;0.60;0.52;;;;;;;22.64;62.30;101145.50;5111577;29;20122;-79
2022/08/01 08:03:51;;;;;;;1.95;0.47;;;;;;;22.64;62.24;101142.84;5102071;29;20135;-80
2022/08/01 08:06:21;;;;;;;0.60;0.60;;;;;;;22.65;62.08;101143.69;5074506;28;1137550;-80
2022/08/01 08:08:53;;;;;;;1.33;1.25;;;;;;;22.61;62.30;101151.06;5102246;29;20035;-80
2022/08/01 08:11:23;;;;;;;1.15;1.13;;;;;;;22.67;61.72;101146.25;5121675;28;20134;-81
2022/08/01 08:13:54;;;;;;;0.55;0.55;;;;;;;22.71;61.42;101147.75;5145065;28;20117;-80
2022/08/01 08:16:26;;;;;;;1.35;0.70;;;;;;;22.68;61.64;101151.50;5130509;28;20105;-80
2022/08/01 08:18:56;;;;;;;0.30;0.30;;;;;;;22.65;62.23;101154.38;5124545;28;20034;-81
2022/08/01 08:21:28;;;;;;;0.30;0.30;;;;;;;22.71;61.40;101150.41;5096598;28;20035;-81
2022/08/01 08:26:53;;;;;;;0.77;0.77;;;;;;;22.71;61.46;101155.75;5109376;28;20039;-79
2022/08/01 08:29:25;;;;;;;1.08;0.50;;;;;;;22.77;61.17;101166.00;5134230;28;20272;-80
2022/08/01 08:31:56;;;;;;;5.93;2.80;;;;;;;22.76;61.12;101154.47;5177124;28;20591;-80
2022/08/01 08:34:27;;;;;;;0.95;0.95;;;;;;;22.83;61.16;101154.91;5189214;28;20022;-79
2022/08/01 08:36:59;;;;;;;0.68;0.68;;;;;;;22.78;61.32;101163.25;5152297;28;20053;-79
2022/08/01 08:39:30;;;;;;;0.32;0.32;;;;;;;22.74;61.84;101160.91;5134979;28;20031;-79
2022/08/01 08:42:01;;;;;;;0.50;0.50;;;;;;;22.83;61.27;101154.91;5162926;28;20054;-80
2022/08/01 08:44:32;;;;;;;0.95;0.82;;;;;;;22.83;61.38;101157.56;5144623;28;20022;-80
2022/08/01 08:47:06;;;;;;;0.20;0.20;;;;;;;22.83;61.48;101160.25;5165826;28;20042;-80
2022/08/01 08:49:37;;;;;;;1.02;0.75;;;;;;;22.89;61.45;101157.13;5147904;28;20053;-80
2022/08/01 08:52:12;;;;;;;0.52;0.52;;;;;;;22.92;61.53;101159.59;5121345;28;20157;-80
2022/08/01 08:54:43;;;;;;;0.40;0.40;;;;;;;23.00;61.14;101163.53;5122245;28;20054;-80
2022/08/01 08:57:14;;;;;;;0.75;0.63;;;;;;;23.08;60.90;101166.50;5146875;28;20042;-80
2022/08/01 08:59:46;;;;;;;0.60;0.60;;;;;;;23.10;61.35;101167.22;5121666;28;20554;-80
2022/08/01 09:02:16;;;;;;;1.45;1.25;;;;;;;23.02;60.90;101162.44;5147887;28;20031;-80
2022/08/01 09:04:49;;;;;;;1.75;1.30;;;;;;;23.05;61.00;101161.34;5140128;28;20570;-81
2022/08/01 09:07:20;;;;;;;0.55;0.55;;;;;;;23.08;60.90;101163.81;5159235;28;20383;-81
2022/08/01 09:09:53;;;;;;;0.60;0.60;;;;;;;23.00;61.06;101161.69;5151933;28;20042;-83
2022/08/01 09:12:24;;;;;;;1.05;0.82;;;;;;;22.88;61.33;101157.25;5141383;28;20034;-81
2022/08/01 09:14:58;;;;;;;0.50;0.50;;;;;;;22.96;60.77;101165.56;5136990;28;20567;-80
2022/08/01 09:17:39;;;;;;;0.73;0.73;;;;;;;23.05;60.76;101166.69;5153456;28;20043;-82
2022/08/01 09:20:23;;;;;;;0.50;0.40;;;;;;;23.12;61.04;101173.31;5154357;28;20051;-81
2022/08/01 09:22:54;;;;;;;0.70;0.70;;;;;;;23.10;61.05;101173.44;5162757;28;20114;-81
2022/08/01 09:25:25;;;;;;;1.55;1.10;;;;;;;23.15;60.82;101181.13;5140582;28;20177;-80
2022/08/01 09:28:03;;;;;;;0.73;0.40;;;;;;;23.22;60.27;101179.75;5161665;28;20166;-80
2022/08/01 09:30:39;;;;;;;1.15;1.05;;;;;;;23.26;59.82;101183.88;5117886;28;20490;-80
2022/08/01 09:33:09;;;;;;;0.35;0.35;;;;;;;23.21;60.19;101180.69;5120847;28;20039;-80
2022/08/01 09:35:44;;;;;;;3.13;1.05;;;;;;;23.26;60.08;101183.03;5117558;28;20051;-81
2022/08/01 09:38:23;;;;;;;0.60;0.60;;;;;;;23.31;59.75;101182.72;5138798;28;20500;-81
2022/08/01 09:40:57;;;;;;;0.40;0.40;;;;;;;23.30;59.81;101178.31;5102284;29;20047;-80
2022/08/01 09:43:30;;;;;;;0.28;0.28;;;;;;;23.27;59.32;101174.88;5134366;28;20082;-80
2022/08/01 09:46:11;;;;;;;0.57;0.57;;;;;;;23.32;59.34;101177.22;5113425;29;20137;-81
2022/08/01 09:49:05;;;;;;;0.73;0.73;;;;;;;23.33;59.15;101172.75;5104611;29;20041;-80
2022/08/01 09:51:37;;;;;;;0.20;0.20;;;;;;;23.31;59.40;101175.50;5143723;28;20073;-80
2022/08/01 09:54:08;;;;;;;1.13;1.02;;;;;;;23.38;58.72;101170.56;5124418;28;20026;-80
2022/08/01 09:56:42;;;;;;;0.45;0.45;;;;;;;23.43;58.48;101173.75;5138714;28;20124;-80
2022/08/01 09:59:12;;;;;;;0.57;0.57;;;;;;;23.38;59.34;101178.59;5134516;28;20576;-80
2022/08/01 10:01:46;;;;;;;1.55;0.93;;;;;;;23.38;59.55;101170.56;5141884;28;20121;-81
2022/08/01 10:04:21;;;;;;;1.25;0.75;;;;;;;23.58;58.29;101172.63;5123685;28;20074;-81
2022/08/01 10:07:02;;;;;;;0.30;0.30;;;;;;;23.64;57.42;101173.97;5157855;28;20042;-80
2022/08/01 10:09:35;;;;;;;0.35;0.35;;;;;;;23.53;57.45;101169.41;5142327;28;20026;-82
2022/08/01 10:12:11;;;;;;;;;;;;;;;23.64;58.09;101173.13;5132116;28;20043;-80
2022/08/01 10:14:42;;;;;;;0.70;0.70;;;;;;;23.65;58.04;101164.13;5120085;28;19921;-80
2022/08/01 10:17:16;;;;;;;0.77;0.77;;;;;;;23.73;58.16;101165.22;5159106;28;20046;-81
2022/08/01 10:19:50;;;;;;;0.47;0.47;;;;;;;23.75;58.05;101162.47;5164550;28;20083;-82
2022/08/01 10:22:23;;;;;;;0.30;0.30;;;;;;;23.84;57.31;101159.06;5132881;28;20026;-80
2022/08/01 10:24:56;;;;;;;0.43;0.43;;;;;;;23.94;57.10;101156.56;5162832;28;20022;-81
2022/08/01 10:27:29;;;;;;;0.30;0.30;;;;;;;23.94;57.56;101164.59;5144011;28;20027;-81
2022/08/01 10:30:07;;;;;;;0.60;0.60;;;;;;;23.99;57.05;101164.25;5149033;28;20063;-80
2022/08/01 10:32:39;;;;;;;0.93;0.93;;;;;;;24.12;57.28;101156.97;5143589;28;20125;-82
2022/08/01 10:35:15;;;;;;;0.47;0.38;;;;;;;24.10;56.86;101161.59;5132131;28;20073;-82
2022/08/01 10:37:47;;;;;;;0.47;0.47;;;;;;;24.13;56.81;101166.72;5130356;28;20034;-81
2022/08/01 10:40:19;;;;;;;0.40;0.40;;;;;;;24.23;56.39;101160.63;5170482;28;20047;-81
2022/08/01 10:42:51;;;;;;;0.40;0.40;;;;;;;24.27;56.28;101162.97;5166342;28;20031;-81
2022/08/01 10:45:25;;;;;;;1.58;1.38;;;;;;;24.34;55.21;101164.19;5168640;28;20050;-81
2022/08/01 10:48:24;;;;;;;0.77;0.60;;;;;;;24.37;55.95;101168.44;5156030;28;20110;-81
2022/08/01 10:51:01;;;;;;;0.88;0.80;;;;;;;24.38;55.29;101166.63;5142182;28;20133;-81
2022/08/01 10:53:34;;;;;;;0.40;0.40;;;;;;;24.37;55.35;101160.41;5135666;28;20026;-81
2022/08/01 10:56:09;;;;;;;0.35;0.35;;;;;;;24.56;54.25;101161.63;5117812;28;20054;-81
2022/08/01 10:58:43;;;;;;;0.40;0.40;;;;;;;24.49;54.98;101166.63;5125573;28;20035;-81
2022/08/01 11:01:26;;;;;;;0.20;0.20;;;;;;;24.54;54.21;101160.88;5112004;28;20119;-81
2022/08/01 11:04:00;;;;;;;0.30;0.30;;;;;;;24.59;54.06;101166.72;5106011;28;20054;-81
2022/08/01 11:06:34;;;;;;;0.20;0.20;;;;;;;24.56;54.76;101156.28;5157173;28;20078;-83
2022/08/01 11:09:12;;;;;;;0.38;0.38;;;;;;;24.58;54.50;101162.38;5141362;28;20035;-80
2022/08/01 11:11:58;;;;;;;0.40;0.40;;;;;;;24.58;54.38;101154.31;5174603;28;20051;-81
2022/08/01 11:14:29;;;;;;;0.70;0.60;;;;;;;24.73;53.39;101154.94;5161245;28;20046;-81
2022/08/01 11:17:41;;;;;;;0.22;0.22;;;;;;;24.70;54.13;101157.88;5145648;28;20051;-81
2022/08/01 11:20:16;;;;;;;0.63;0.52;;;;;;;24.77;52.90;101154.56;5143667;28;20057;-82
2022/08/01 11:23:05;;;;;;;0.50;0.50;;;;;;;24.77;53.20;101143.84;5144762;28;20121;-82
2022/08/01 11:25:53;;;;;;;0.35;0.35;;;;;;;24.75;53.08;101148.47;5144024;28;20074;-81
2022/08/01 11:28:25;;;;;;;0.55;0.38;;;;;;;24.74;52.65;101156.66;5139419;28;20609;-82
2022/08/01 11:31:11;;;;;;;0.38;0.38;;;;;;;24.78;52.21;101155.44;5132763;28;20042;-81
2022/08/01 11:33:42;;;;;;;0.45;0.45;;;;;;;24.77;52.29;101149.19;5134509;28;20038;-80
2022/08/01 11:36:15;;;;;;;0.20;0.20;;;;;;;24.82;52.82;101140.78;5131559;28;20051;-81
2022/08/01 11:38:49;;;;;;;0.40;0.40;;;;;;;24.74;50.86;101138.72;5126491;28;20577;-80
2022/08/01 11:41:28;;;;;;;0.57;0.50;;;;;;;24.74;49.91;101136.06;5115625;28;20588;-80
2022/08/01 11:44:05;;;;;;;0.20;0.20;;;;;;;24.66;48.32;101135.78;5124861;28;20039;-82
2022/08/01 11:46:51;;;;;;;0.20;0.20;;;;;;;24.72;50.41;101146.03;5121504;28;20186;-81
2022/08/01 11:49:28;;;;;;;;;;;;;;;24.74;50.34;101143.22;5089345;28;20031;-81
2022/08/01 11:52:16;;;;;;;0.98;0.40;;;;;;;24.77;49.69;101146.50;5174457;28;19929;-82
2022/08/01 11:54:49;;;;;;;0.30;0.30;;;;;;;24.91;50.00;101144.56;5138159;28;20043;-81
2022/08/01 11:57:30;;;;;;;0.30;0.30;;;;;;;24.92;50.28;101147.13;5142467;28;20031;-81
2022/08/01 12:00:10;;;;;;;0.45;0.45;;;;;;;24.93;49.51;101147.94;5101214;28;20028;-81